Arthur, North Dakota
Current Conditions -  °F | °C
As of 8:53 PM on Monday 22 Dec 2014 (Local Time) from KFAR Reporting Station
Light Rain Light Rain  
Wind Chill: 30°   Ceiling: 2400
Heat Index: 36°   Visibility: 7mi
Dew Point: 34°   Wind: 7mph
Humidity: 93%   Direction: 60°ENE
Pressure: 29.66"   Gusts: NA
Location:  47.1°N, 97.22°W
Report Text: KFAR 230253Z 06006KT 7SM -RA OVC024 02/01 A2966 RMK AO2 SLP051 P0000 60000 T00220011 52021
Loading
Personal Weather Stations






























Interactive Weather Map New forecast layout! Learn more

10-Day Weather Forecast

Advertisements
Track Severe Weather on mobile